createdAt,value
2019-05-16T00:00:29.233Z,15.00
2019-05-16T00:02:58.870Z,14.90
2019-05-16T00:05:28.172Z,14.90
2019-05-16T00:07:59.003Z,14.90
2019-05-16T00:10:28.222Z,14.80
2019-05-16T00:12:59.589Z,14.80
2019-05-16T00:15:28.754Z,14.80
2019-05-16T00:17:58.345Z,14.80
2019-05-16T00:20:28.498Z,14.70
2019-05-16T00:22:58.912Z,14.70
2019-05-16T00:25:28.643Z,14.70
2019-05-16T00:27:58.609Z,14.70
2019-05-16T00:30:28.719Z,14.60
2019-05-16T00:32:58.722Z,14.60
2019-05-16T00:35:28.513Z,14.50
2019-05-16T00:37:59.071Z,14.50
2019-05-16T00:40:28.141Z,14.50
2019-05-16T00:42:58.898Z,14.40
2019-05-16T00:45:29.432Z,14.40
2019-05-16T00:47:58.712Z,14.40
2019-05-16T00:50:28.841Z,14.30
2019-05-16T00:52:59.045Z,14.30
2019-05-16T00:55:28.822Z,14.30
2019-05-16T00:57:58.816Z,14.20
2019-05-16T01:00:49.363Z,14.20
2019-05-16T01:03:20.231Z,14.20
2019-05-16T01:05:48.723Z,14.10
2019-05-16T01:08:18.950Z,14.10
2019-05-16T01:10:51.317Z,14.10
2019-05-16T01:13:19.169Z,14.10
2019-05-16T01:15:48.607Z,14.10
2019-05-16T01:18:18.678Z,14.00
2019-05-16T01:20:48.148Z,14.00
2019-05-16T01:23:18.203Z,14.00
2019-05-16T01:25:48.468Z,14.00
2019-05-16T01:28:18.055Z,13.90
2019-05-16T01:30:48.764Z,13.90
2019-05-16T01:33:19.203Z,13.90
2019-05-16T01:35:48.524Z,13.90
2019-05-16T01:38:18.077Z,13.80
2019-05-16T01:40:49.141Z,13.80
2019-05-16T01:43:17.980Z,13.80
2019-05-16T01:45:48.767Z,13.80
2019-05-16T01:48:19.074Z,13.70
2019-05-16T01:50:48.296Z,13.70
2019-05-16T01:53:17.955Z,13.70
2019-05-16T01:55:48.795Z,11.90
2019-05-16T01:58:19.763Z,13.60
2019-05-16T02:01:00.099Z,13.60
2019-05-16T02:03:18.983Z,13.60
2019-05-16T02:05:48.182Z,13.50
2019-05-16T02:08:18.189Z,13.50
2019-05-16T02:10:47.936Z,13.50
2019-05-16T02:13:19.948Z,13.40
2019-05-16T02:15:49.030Z,13.40
2019-05-16T02:18:18.396Z,13.30
2019-05-16T02:20:48.153Z,13.30
2019-05-16T02:23:18.880Z,13.20
2019-05-16T02:25:48.964Z,13.20
2019-05-16T02:28:21.078Z,13.10
2019-05-16T02:30:51.546Z,13.00
2019-05-16T02:33:21.268Z,13.00
2019-05-16T02:35:54.787Z,12.90
2019-05-16T02:38:21.299Z,12.90
2019-05-16T02:40:51.212Z,12.80
2019-05-16T02:43:25.227Z,12.80
2019-05-16T02:45:51.897Z,12.70
2019-05-16T02:48:21.775Z,12.70
2019-05-16T02:50:51.396Z,12.60
2019-05-16T02:53:22.233Z,12.60
2019-05-16T02:55:52.068Z,12.50
2019-05-16T02:58:23.340Z,12.40
2019-05-16T03:00:51.869Z,12.40
2019-05-16T03:03:21.651Z,12.30
2019-05-16T03:05:51.446Z,12.20
2019-05-16T03:08:21.230Z,12.10
2019-05-16T03:10:52.264Z,12.10
2019-05-16T03:13:23.145Z,12.00
2019-05-16T03:15:52.083Z,12.00
2019-05-16T03:18:23.747Z,11.90
2019-05-16T03:20:54.323Z,11.90
2019-05-16T03:23:23.108Z,11.80
2019-05-16T03:25:51.970Z,11.70
2019-05-16T03:28:22.203Z,11.70
2019-05-16T03:30:54.739Z,11.60
2019-05-16T03:33:30.419Z,11.60
2019-05-16T03:35:54.759Z,11.50
2019-05-16T03:38:22.844Z,11.50
2019-05-16T03:40:51.609Z,11.40
2019-05-16T03:43:21.965Z,11.30
2019-05-16T03:45:52.266Z,11.30
2019-05-16T03:48:21.621Z,11.20
2019-05-16T03:50:50.881Z,11.20
2019-05-16T03:53:21.104Z,11.20
2019-05-16T03:55:51.776Z,11.10
2019-05-16T03:58:22.630Z,11.10
2019-05-16T04:00:54.552Z,11.10
2019-05-16T04:03:28.176Z,11.00
2019-05-16T04:05:54.599Z,11.00
2019-05-16T04:08:25.596Z,11.00
2019-05-16T04:10:53.999Z,11.00
2019-05-16T04:13:22.760Z,11.00
2019-05-16T04:15:52.798Z,11.00
2019-05-16T04:18:22.628Z,10.90
2019-05-16T04:20:52.560Z,11.00
2019-05-16T04:23:21.718Z,10.90
2019-05-16T04:25:52.527Z,10.90
2019-05-16T04:28:22.376Z,10.90
2019-05-16T04:30:51.623Z,10.90
2019-05-16T04:33:22.117Z,10.90
2019-05-16T04:35:52.604Z,10.90
2019-05-16T04:38:34.920Z,10.90
2019-05-16T04:40:52.618Z,10.90
2019-05-16T04:43:22.350Z,10.90
2019-05-16T04:45:52.596Z,11.00
2019-05-16T04:48:22.798Z,11.00
2019-05-16T04:50:52.418Z,11.00
2019-05-16T04:53:21.887Z,11.00
2019-05-16T04:55:52.011Z,11.10
2019-05-16T04:58:23.320Z,11.10
2019-05-16T05:00:52.454Z,11.10
2019-05-16T05:03:21.542Z,11.20
2019-05-16T05:05:51.314Z,11.20
2019-05-16T05:08:21.879Z,11.20
2019-05-16T05:10:52.028Z,11.30
2019-05-16T05:13:22.072Z,11.30
2019-05-16T05:15:51.575Z,11.40
2019-05-16T05:18:21.571Z,11.40
2019-05-16T05:20:52.277Z,11.40
2019-05-16T05:23:21.319Z,11.50
2019-05-16T05:25:51.524Z,11.60
2019-05-16T05:28:21.199Z,11.60
2019-05-16T05:30:50.715Z,11.70
2019-05-16T05:33:21.353Z,11.80
2019-05-16T05:35:50.850Z,11.90
2019-05-16T05:38:21.230Z,12.00
2019-05-16T05:40:51.233Z,12.10
2019-05-16T05:43:21.645Z,12.20
2019-05-16T05:45:51.519Z,12.30
2019-05-16T05:48:21.603Z,12.30
2019-05-16T05:50:51.131Z,12.40
2019-05-16T05:53:20.858Z,12.40
2019-05-16T05:55:50.975Z,12.50
2019-05-16T05:58:20.818Z,12.60
2019-05-16T06:00:51.919Z,12.70
2019-05-16T06:03:39.940Z,12.70
2019-05-16T06:06:10.499Z,12.80
2019-05-16T06:08:40.924Z,12.80
2019-05-16T06:11:10.127Z,12.90
2019-05-16T06:13:40.463Z,12.90
2019-05-16T06:16:10.808Z,13.00
2019-05-16T06:18:39.858Z,13.00
2019-05-16T06:21:11.246Z,13.10
2019-05-16T06:23:40.318Z,13.20
2019-05-16T06:26:12.251Z,13.30
2019-05-16T06:28:41.328Z,13.30
2019-05-16T06:31:13.944Z,13.40
2019-05-16T06:33:41.209Z,13.60
2019-05-16T06:36:11.027Z,13.70
2019-05-16T06:38:40.550Z,13.80
2019-05-16T06:41:10.632Z,13.90
2019-05-16T06:43:40.030Z,14.00
2019-05-16T06:46:10.975Z,14.10
2019-05-16T06:48:39.857Z,14.10
2019-05-16T06:51:15.906Z,14.10
2019-05-16T06:53:44.732Z,14.20
2019-05-16T06:56:13.515Z,14.20
2019-05-16T06:58:47.735Z,14.20
2019-05-16T07:01:14.439Z,14.20
2019-05-16T07:03:43.290Z,14.30
2019-05-16T07:06:29.878Z,14.40
2019-05-16T07:08:42.721Z,14.40
2019-05-16T07:11:11.548Z,14.40
2019-05-16T07:13:40.726Z,14.50
2019-05-16T07:16:09.789Z,14.60
2019-05-16T07:18:40.214Z,14.60
2019-05-16T07:21:10.894Z,14.70
2019-05-16T07:23:40.567Z,14.80
2019-05-16T07:26:09.872Z,14.80
2019-05-16T07:28:40.584Z,14.90
2019-05-16T07:31:15.671Z,15.00
2019-05-16T07:33:40.714Z,15.00
2019-05-16T07:36:10.025Z,15.10
2019-05-16T07:38:40.050Z,15.20
2019-05-16T07:41:13.740Z,15.30
2019-05-16T07:43:40.132Z,15.40
2019-05-16T07:46:20.656Z,15.40
2019-05-16T07:48:51.837Z,15.50
2019-05-16T07:51:20.565Z,15.50
2019-05-16T07:53:50.518Z,15.60
2019-05-16T07:56:20.404Z,15.60
2019-05-16T07:58:50.759Z,15.70
2019-05-16T08:01:20.135Z,15.70
2019-05-16T08:03:51.096Z,15.80
2019-05-16T08:06:20.277Z,15.90
2019-05-16T08:08:50.849Z,15.90
2019-05-16T08:11:20.522Z,16.00
2019-05-16T08:13:50.893Z,16.10
2019-05-16T08:16:20.757Z,16.20
2019-05-16T08:18:50.683Z,16.30
2019-05-16T08:21:20.394Z,16.40
2019-05-16T08:23:50.380Z,18.10
2019-05-16T08:26:21.984Z,16.50
2019-05-16T08:28:50.573Z,16.50
2019-05-16T08:31:21.382Z,16.60
2019-05-16T08:36:21.287Z,16.70
2019-05-16T08:38:51.584Z,16.70
2019-05-16T08:41:22.041Z,16.80
2019-05-16T08:43:53.418Z,16.90
2019-05-16T08:46:21.736Z,16.90
2019-05-16T08:48:54.031Z,17.00
2019-05-16T08:51:22.205Z,17.00
2019-05-16T08:53:51.398Z,17.10
2019-05-16T08:56:21.825Z,17.20
2019-05-16T08:58:53.764Z,17.20
2019-05-16T09:01:21.919Z,17.30
2019-05-16T09:06:22.834Z,17.40
2019-05-16T09:08:52.240Z,17.50
2019-05-16T09:10:30.921Z,17.30
2019-05-16T09:10:34.456Z,16.60
2019-05-16T09:11:39.144Z,17.60
2019-05-16T09:13:51.711Z,17.60
2019-05-16T09:16:20.538Z,17.70
2019-05-16T09:18:50.991Z,17.70
2019-05-16T09:21:20.023Z,17.80
2019-05-16T09:23:48.971Z,17.80
2019-05-16T09:26:19.768Z,17.90
2019-05-16T09:28:48.512Z,17.90
2019-05-16T09:31:18.010Z,18.00
2019-05-16T09:33:47.535Z,18.10
2019-05-16T09:36:17.528Z,18.10
2019-05-16T09:38:48.548Z,18.20
2019-05-16T09:41:17.229Z,18.20
2019-05-16T09:43:48.746Z,18.30
2019-05-16T09:46:17.312Z,18.40
2019-05-16T09:48:47.754Z,18.40
2019-05-16T09:51:17.306Z,18.50
2019-05-16T09:53:47.538Z,18.50
2019-05-16T09:56:16.830Z,18.60
2019-05-16T09:58:46.717Z,18.60
2019-05-16T10:01:17.314Z,18.60
2019-05-16T10:03:47.736Z,18.70
2019-05-16T10:06:19.008Z,18.70
2019-05-16T10:08:47.532Z,18.70
2019-05-16T10:11:18.195Z,18.70
2019-05-16T10:13:47.261Z,18.80
2019-05-16T10:16:16.727Z,18.80
2019-05-16T10:18:47.614Z,18.80
2019-05-16T10:21:20.319Z,18.90
2019-05-16T10:23:47.311Z,18.90
2019-05-16T10:26:19.032Z,18.90
2019-05-16T10:28:47.081Z,18.90
2019-05-16T10:31:17.880Z,18.90
2019-05-16T10:33:47.694Z,18.90
2019-05-16T10:36:21.225Z,18.90
2019-05-16T10:38:48.570Z,18.90
2019-05-16T10:41:17.549Z,19.00
2019-05-16T10:43:47.493Z,19.10
2019-05-16T10:46:17.650Z,19.20
2019-05-16T10:48:47.090Z,19.30
2019-05-16T10:51:16.946Z,19.50
2019-05-16T10:54:02.582Z,19.60
2019-05-16T10:56:16.482Z,19.80
2019-05-16T10:59:05.010Z,19.80
2019-05-16T11:01:26.977Z,19.90
2019-05-16T11:03:48.820Z,20.00
2019-05-16T11:06:25.271Z,20.10
2019-05-16T11:08:47.726Z,20.30
2019-05-16T11:11:19.697Z,20.40
2019-05-16T11:13:47.269Z,20.50
2019-05-16T11:16:17.466Z,20.60
2019-05-16T11:18:46.521Z,20.60
2019-05-16T11:21:18.984Z,20.60
2019-05-16T11:23:47.113Z,20.70
2019-05-16T11:26:16.021Z,20.70
2019-05-16T11:28:48.005Z,20.70
2019-05-16T11:31:17.595Z,20.80
2019-05-16T11:33:47.729Z,20.80
2019-05-16T11:36:16.847Z,20.90
2019-05-16T11:38:47.532Z,21.10
2019-05-16T11:41:16.788Z,21.20
2019-05-16T11:43:47.408Z,21.30
2019-05-16T11:46:16.573Z,21.40
2019-05-16T11:48:45.418Z,21.50
2019-05-16T11:51:14.323Z,21.50
2019-05-16T11:53:43.272Z,21.60
2019-05-16T11:56:12.242Z,21.60
2019-05-16T11:58:41.026Z,21.60
2019-05-16T12:01:09.894Z,21.60
2019-05-16T12:03:38.670Z,21.60
2019-05-16T12:06:10.828Z,21.60
2019-05-16T12:08:38.108Z,21.70
2019-05-16T12:11:07.241Z,21.70
2019-05-16T12:13:36.951Z,21.70
2019-05-16T12:16:07.698Z,21.80
2019-05-16T12:18:37.476Z,21.80
2019-05-16T12:21:09.087Z,21.80
2019-05-16T12:23:37.843Z,21.80
2019-05-16T12:26:07.887Z,21.80
2019-05-16T12:28:36.931Z,21.80
2019-05-16T12:31:07.135Z,21.90
2019-05-16T12:33:37.487Z,21.90
2019-05-16T12:36:07.482Z,22.00
2019-05-16T12:38:38.003Z,22.10
2019-05-16T12:41:07.360Z,22.10
2019-05-16T12:43:46.084Z,22.20
2019-05-16T12:46:07.447Z,22.30
2019-05-16T12:48:37.482Z,22.40
2019-05-16T12:51:08.383Z,22.50
2019-05-16T12:53:37.128Z,22.60
2019-05-16T12:56:06.111Z,22.70
2019-05-16T12:58:41.827Z,22.80
2019-05-16T13:01:07.734Z,22.90
2019-05-16T13:03:37.796Z,23.00
2019-05-16T13:06:06.871Z,23.00
2019-05-16T13:08:38.754Z,23.20
2019-05-16T13:11:07.738Z,23.30
2019-05-16T13:13:37.532Z,23.30
2019-05-16T13:16:07.925Z,23.50
2019-05-16T13:18:37.029Z,23.60
2019-05-16T13:21:06.890Z,23.60
2019-05-16T13:23:35.849Z,23.80
2019-05-16T13:26:07.228Z,23.80
2019-05-16T13:28:37.593Z,23.90
2019-05-16T13:31:10.775Z,23.90
2019-05-16T13:33:39.945Z,23.80
2019-05-16T13:36:10.242Z,23.80
2019-05-16T13:38:39.086Z,23.80
2019-05-16T13:41:07.971Z,23.80
2019-05-16T13:43:38.109Z,23.80
2019-05-16T13:46:08.432Z,23.80
2019-05-16T13:48:37.813Z,23.80
2019-05-16T13:51:14.681Z,23.70
2019-05-16T13:54:04.263Z,23.70
2019-05-16T13:56:33.087Z,23.70
2019-05-16T13:59:03.153Z,23.70
2019-05-16T14:01:33.680Z,23.70
2019-05-16T14:04:09.021Z,23.70
2019-05-16T14:06:36.809Z,23.80
2019-05-16T14:09:07.417Z,23.80
2019-05-16T14:11:36.519Z,23.80
2019-05-16T14:14:05.658Z,23.80
2019-05-16T14:16:34.514Z,23.80
2019-05-16T14:19:03.308Z,23.80
2019-05-16T14:21:32.185Z,23.80
2019-05-16T14:24:01.100Z,23.80
2019-05-16T14:26:29.981Z,23.80
2019-05-16T14:28:58.932Z,23.80
2019-05-16T14:31:27.897Z,23.80
2019-05-16T14:33:56.964Z,23.80
2019-05-16T14:36:27.767Z,23.70
2019-05-16T14:39:02.265Z,23.80
2019-05-16T14:41:31.032Z,23.80
2019-05-16T14:44:00.154Z,23.90
2019-05-16T14:46:31.513Z,23.90
2019-05-16T14:49:00.427Z,24.10
2019-05-16T14:51:33.495Z,24.30
2019-05-16T14:54:03.530Z,24.50
2019-05-16T14:56:34.281Z,24.70
2019-05-16T14:59:03.227Z,24.80
2019-05-16T15:01:32.127Z,24.80
2019-05-16T15:04:00.958Z,24.90
2019-05-16T15:06:29.847Z,24.80
2019-05-16T15:08:58.769Z,24.80
2019-05-16T15:11:28.189Z,24.70
2019-05-16T15:13:57.557Z,24.70
2019-05-16T15:16:27.361Z,24.70
2019-05-16T15:18:57.565Z,24.70
2019-05-16T15:21:26.606Z,24.70
2019-05-16T15:23:59.395Z,24.60
2019-05-16T15:26:27.199Z,24.50
2019-05-16T15:28:58.892Z,24.50
2019-05-16T15:31:28.220Z,24.30
2019-05-16T15:33:57.373Z,24.30
2019-05-16T15:36:27.025Z,24.20
2019-05-16T15:38:59.231Z,24.10
2019-05-16T15:41:32.754Z,24.10
2019-05-16T15:44:01.494Z,24.00
2019-05-16T15:46:30.374Z,23.90
2019-05-16T15:49:00.467Z,23.80
2019-05-16T15:51:32.876Z,23.60
2019-05-16T15:54:02.758Z,23.50
2019-05-16T15:56:31.934Z,23.50
2019-05-16T15:59:00.756Z,23.40
2019-05-16T16:01:29.519Z,23.40
2019-05-16T16:03:58.533Z,23.60
2019-05-16T16:06:27.597Z,23.70
2019-05-16T16:08:56.548Z,23.70
2019-05-16T16:11:27.236Z,23.80
2019-05-16T16:13:57.695Z,23.70
2019-05-16T16:16:26.816Z,23.70
2019-05-16T16:18:57.433Z,23.60
2019-05-16T16:21:27.386Z,23.60
2019-05-16T16:23:57.313Z,23.60
2019-05-16T16:26:26.765Z,23.60
2019-05-16T16:28:55.643Z,23.50
2019-05-16T16:31:29.717Z,23.50
2019-05-16T16:33:58.481Z,23.40
2019-05-16T16:36:27.630Z,23.40
2019-05-16T16:38:56.779Z,23.40
2019-05-16T16:41:27.673Z,23.40
2019-05-16T16:43:57.062Z,23.50
2019-05-16T16:46:27.067Z,23.50
2019-05-16T16:48:56.859Z,23.50
2019-05-16T16:51:32.526Z,23.50
2019-05-16T16:54:01.361Z,23.40
2019-05-16T16:56:30.346Z,23.40
2019-05-16T16:58:59.108Z,23.30
2019-05-16T17:01:27.944Z,23.20
2019-05-16T17:03:57.470Z,23.10
2019-05-16T17:06:27.094Z,23.00
2019-05-16T17:08:56.838Z,22.90
2019-05-16T17:11:26.509Z,22.80
2019-05-16T17:13:56.565Z,22.70
2019-05-16T17:16:28.903Z,22.50
2019-05-16T17:18:56.843Z,22.40
2019-05-16T17:21:25.995Z,22.30
2019-05-16T17:23:56.816Z,22.20
2019-05-16T17:26:27.501Z,22.10
2019-05-16T17:28:57.097Z,22.00
2019-05-16T17:31:26.058Z,21.80
2019-05-16T17:33:57.721Z,21.60
2019-05-16T17:36:26.568Z,21.50
2019-05-16T17:39:01.409Z,21.30
2019-05-16T17:41:30.252Z,21.10
2019-05-16T17:43:59.108Z,21.00
2019-05-16T17:46:37.284Z,20.80
2019-05-16T17:48:58.540Z,20.70
2019-05-16T17:51:27.407Z,20.60
2019-05-16T17:53:57.127Z,20.50
2019-05-16T17:56:26.515Z,20.30
2019-05-16T17:58:56.941Z,20.30
2019-05-16T18:01:27.385Z,20.20
2019-05-16T18:03:57.338Z,20.20
2019-05-16T18:06:27.158Z,20.10
2019-05-16T18:08:57.129Z,20.00
2019-05-16T18:11:26.785Z,19.90
2019-05-16T18:13:58.599Z,19.90
2019-05-16T18:16:27.494Z,19.80
2019-05-16T18:18:57.529Z,19.70
2019-05-16T18:21:26.635Z,19.70
2019-05-16T18:23:55.488Z,19.60
2019-05-16T18:26:26.819Z,19.50
2019-05-16T18:28:54.783Z,19.40
2019-05-16T18:31:23.562Z,19.00
2019-05-16T18:33:52.384Z,18.90
2019-05-16T18:36:21.125Z,18.90
2019-05-16T18:38:49.897Z,18.80
2019-05-16T18:41:18.675Z,18.80
2019-05-16T18:43:47.522Z,18.80
2019-05-16T18:46:16.402Z,18.70
2019-05-16T18:48:47.165Z,18.70
2019-05-16T18:51:15.928Z,18.70
2019-05-16T18:53:46.547Z,18.60
2019-05-16T18:56:16.870Z,18.60
2019-05-16T18:58:46.609Z,18.50
2019-05-16T19:01:17.665Z,18.50
2019-05-16T19:03:49.159Z,18.40
2019-05-16T19:06:18.128Z,18.30
2019-05-16T19:08:47.032Z,18.30
2019-05-16T19:11:17.570Z,18.20
2019-05-16T19:13:47.482Z,18.10
2019-05-16T19:16:16.963Z,18.10
2019-05-16T19:18:46.036Z,18.00
2019-05-16T19:21:16.804Z,18.00
2019-05-16T19:23:46.173Z,17.90
2019-05-16T19:26:16.654Z,17.80
2019-05-16T19:28:46.711Z,17.70
2019-05-16T19:31:17.135Z,17.60
2019-05-16T19:33:48.567Z,17.60
2019-05-16T19:36:16.699Z,17.50
2019-05-16T19:38:46.580Z,17.50
2019-05-16T19:41:16.420Z,17.40
2019-05-16T19:43:46.666Z,17.20
2019-05-16T19:46:15.823Z,17.10
2019-05-16T19:48:46.474Z,17.20
2019-05-16T19:51:16.280Z,17.20
2019-05-16T19:53:47.084Z,17.20
2019-05-16T19:56:17.756Z,17.20
2019-05-16T19:58:46.931Z,17.20
2019-05-16T20:01:16.822Z,17.20
2019-05-16T20:03:47.110Z,17.20
2019-05-16T20:06:16.813Z,17.20
2019-05-16T20:08:45.898Z,17.10
2019-05-16T20:11:16.852Z,17.10
2019-05-16T20:13:47.374Z,17.10
2019-05-16T20:16:18.308Z,17.00
2019-05-16T20:18:46.762Z,17.00
2019-05-16T20:21:16.438Z,16.90
2019-05-16T20:23:47.286Z,16.90
2019-05-16T20:26:16.878Z,16.90
2019-05-16T20:28:47.437Z,16.90
2019-05-16T20:31:17.091Z,16.90
2019-05-16T20:33:46.907Z,16.90
2019-05-16T20:36:17.359Z,16.90
2019-05-16T20:38:46.621Z,16.90
2019-05-16T20:41:18.702Z,16.80
2019-05-16T20:43:47.603Z,16.80
2019-05-16T20:46:17.021Z,16.80
2019-05-16T20:48:46.102Z,16.80
2019-05-16T20:51:16.572Z,16.80
2019-05-16T20:53:46.831Z,16.80
2019-05-16T20:56:17.153Z,16.70
2019-05-16T20:58:46.675Z,16.70
2019-05-16T21:01:17.345Z,16.80
2019-05-16T21:03:46.771Z,16.80
2019-05-16T21:06:17.089Z,16.90
2019-05-16T21:08:49.361Z,16.90
2019-05-16T21:11:17.248Z,16.90
2019-05-16T21:13:48.692Z,16.90
2019-05-16T21:16:16.898Z,16.90
2019-05-16T21:18:46.984Z,16.90
2019-05-16T21:21:19.002Z,16.90
2019-05-16T21:23:46.984Z,16.90
2019-05-16T21:26:15.880Z,16.90
2019-05-16T21:28:46.259Z,16.90
2019-05-16T21:31:16.405Z,16.90
2019-05-16T21:33:50.317Z,16.90
2019-05-16T21:36:20.384Z,16.90
2019-05-16T21:38:49.136Z,16.80
2019-05-16T21:41:18.072Z,16.80
2019-05-16T21:43:47.059Z,16.80
2019-05-16T21:46:17.169Z,16.80
2019-05-16T21:48:47.307Z,16.80
2019-05-16T21:51:17.065Z,16.70
2019-05-16T21:53:47.249Z,16.70
2019-05-16T21:56:17.680Z,16.70
2019-05-16T21:58:47.360Z,16.70
2019-05-16T22:01:20.688Z,16.60
2019-05-16T22:03:49.631Z,16.60
2019-05-16T22:06:18.434Z,16.40
2019-05-16T22:08:47.229Z,16.50
2019-05-16T22:11:17.245Z,16.50
2019-05-16T22:13:46.534Z,16.50
2019-05-16T22:16:17.674Z,16.50
2019-05-16T22:18:47.486Z,16.50
2019-05-16T22:21:16.813Z,16.50
2019-05-16T22:23:46.542Z,16.50
2019-05-16T22:26:16.803Z,16.50
2019-05-16T22:28:46.718Z,16.50
2019-05-16T22:31:19.088Z,16.50
2019-05-16T22:33:48.032Z,16.50
2019-05-16T22:36:20.112Z,16.50
2019-05-16T22:38:49.828Z,16.50
2019-05-16T22:41:18.761Z,16.50
2019-05-16T22:43:47.544Z,16.50
2019-05-16T22:46:17.843Z,16.50
2019-05-16T22:48:46.940Z,16.50
2019-05-16T22:51:16.516Z,16.50
2019-05-16T22:53:45.507Z,16.40
2019-05-16T22:56:14.281Z,16.40
2019-05-16T22:58:43.159Z,16.40
2019-05-16T23:01:12.098Z,16.40
2019-05-16T23:03:40.858Z,16.40
2019-05-16T23:06:09.708Z,16.30
2019-05-16T23:08:38.457Z,16.30
2019-05-16T23:11:07.580Z,16.30
2019-05-16T23:13:36.435Z,16.20
2019-05-16T23:16:06.762Z,16.20
2019-05-16T23:18:37.533Z,16.20
2019-05-16T23:21:06.555Z,16.10
2019-05-16T23:23:37.244Z,16.10
2019-05-16T23:26:06.462Z,16.10
2019-05-16T23:28:36.818Z,16.10
2019-05-16T23:31:06.004Z,16.00
2019-05-16T23:33:36.552Z,16.00
2019-05-16T23:36:07.164Z,16.00
2019-05-16T23:38:36.878Z,16.00
2019-05-16T23:41:06.618Z,16.00
2019-05-16T23:43:37.290Z,15.90
2019-05-16T23:46:07.103Z,15.90
2019-05-16T23:48:36.517Z,15.90
2019-05-16T23:51:07.762Z,15.90
2019-05-16T23:53:37.084Z,15.90
2019-05-16T23:56:07.476Z,15.80
2019-05-16T23:58:37.187Z,15.80
